METAR Data
IDs: Format: Raw Decoded Include TAF

Data at: 0236 UTC 05 Jun 2020

KMYJ 050235Z AUTO 00000KT 7SM CLR 21/20 A2982 RMK AO2
KMYJ 050215Z AUTO 00000KT 7SM CLR 21/20 A2982 RMK AO2
KMYJ 050155Z AUTO 17003KT 10SM CLR 22/20 A2981 RMK AO2
KMYJ 050135Z AUTO 17003KT 5SM HZ CLR 23/20 A2982 RMK AO2
KMYJ 050115Z AUTO 20004KT 7SM CLR 24/20 A2982 RMK AO2
KMYJ 050055Z AUTO 19004KT 7SM CLR 25/20 A2982 RMK AO2
KMYJ 050035Z AUTO 17005KT 7SM CLR 26/20 A2982 RMK AO2
KMYJ 050015Z AUTO 18004KT 7SM CLR 26/19 A2981 RMK AO2
KMYJ 042355Z AUTO 18005KT 7SM CLR 26/19 A2981 RMK AO2
KMYJ 042335Z AUTO 20006KT 7SM CLR 27/18 A2981 RMK AO2
KMYJ 042315Z AUTO 18005KT 7SM CLR 27/18 A2981 RMK AO2
KMYJ 042255Z AUTO 20006KT 5SM HZ CLR 27/18 A2981 RMK AO2
KMYJ 042235Z AUTO 17007KT 7SM CLR 27/19 A2981 RMK AO2
KMYJ 042215Z AUTO 20007KT 7SM CLR 27/19 A2981 RMK AO2
KMYJ 042155Z AUTO 21006KT 7SM CLR 27/19 A2982 RMK AO2
KMYJ 042135Z AUTO 17005KT 7SM CLR 27/20 A2982 RMK AO2
KMYJ 042115Z AUTO 23005KT 7SM CLR 27/19 A2982 RMK AO2
KMYJ 042055Z AUTO 24005KT 10SM SCT033 26/18 A2983 RMK AO2
KMYJ 042035Z AUTO 21007KT 7SM SCT033 26/20 A2984 RMK AO2
KMYJ 042015Z AUTO 19006KT 10SM CLR 26/20 A2984 RMK AO2
KMYJ 041955Z AUTO 17008KT 10SM CLR 26/19 A2984 RMK AO2
KMYJ 041935Z AUTO 17007KT 7SM CLR 26/20 A2984 RMK AO2
KMYJ 041915Z AUTO 16008KT 152V212 7SM SCT025 26/19 A2984 RMK AO2
KMYJ 041855Z AUTO 17004KT 10SM SCT025 SCT120 25/20 A2985 RMK AO2
KMYJ 041835Z AUTO 17004KT 7SM SCT025 SCT120 25/19 A2986 RMK AO2
KMYJ 041815Z AUTO 00000KT 7SM SCT027 BKN120 23/19 A2986 RMK AO2
KMYJ 041755Z AUTO 00000KT 10SM BKN120 23/18 A2986 RMK AO2
KMYJ 041735Z AUTO 28003KT 10SM BKN120 22/19 A2986 RMK AO2
KMYJ 041715Z AUTO 00000KT 7SM SCT120 21/18 A2986 RMK AO2
KMYJ 041655Z AUTO 00000KT 7SM CLR 22/18 A2984 RMK AO2
KMYJ 041635Z AUTO 10003KT 10SM SCT110 21/18 A2984 RMK AO2
KMYJ 041615Z AUTO 13004KT 10SM BKN110 21/18 A2983 RMK AO2
KMYJ 041555Z AUTO 13005KT 7SM OVC120 20/17 A2983 RMK AO2
KMYJ 041535Z AUTO 10004KT 10SM BKN120 20/18 A2984 RMK AO2
KMYJ 041515Z AUTO 10004KT 10SM BKN120 20/18 A2984 RMK AO2
KMYJ 041455Z AUTO 10003KT 7SM OVC120 19/17 A2985 RMK AO2
KMYJ 041435Z AUTO 08005KT 7SM SCT024 OVC120 19/17 A2985 RMK AO2
KMYJ 041415Z AUTO 02005KT 10SM SCT024 BKN120 19/18 A2986 RMK AO2
KMYJ 041355Z AUTO 09005KT 7SM CLR 18/17 A2983 RMK AO2
KMYJ 041335Z AUTO 10007KT 10SM CLR 18/17 A2980 RMK AO2
KMYJ 041315Z AUTO 10005KT 7SM CLR 18/17 A2978 RMK AO2
KMYJ 041255Z AUTO 10006KT 7SM CLR 18/17 A2979 RMK AO2 P0003
KMYJ 041235Z AUTO 25007KT 10SM -RA SCT041 SCT049 BKN120 17/17 A2980 RMK AO2 P0003
KMYJ 041215Z AUTO 24014G20KT 7SM -RA BKN047 OVC050 17/17 A2981 RMK AO2 P0002
KMYJ 041155Z AUTO 23016G20KT 7SM -RA SCT047 BKN050 OVC120 17/17 A2982 RMK AO2 P0006
KMYJ 041135Z AUTO 23013G17KT 7SM -RA BKN120 18/17 A2983 RMK AO2 P0003 LTG DSNT SE
KMYJ 041115Z AUTO 23015G21KT 7SM -RA OVC120 18/17 A2981 RMK AO2 P0001
KMYJ 041055Z AUTO 24013KT 10SM OVC120 18/17 A2981 RMK AO2 P0002
KMYJ 041035Z AUTO 25009KT 10SM -RA OVC110 18/17 A2985 RMK AO2 P0002
KMYJ 041015Z AUTO 28015G19KT 10SM -RA OVC110 18/17 A2986 RMK AO2
KMYJ 040955Z AUTO 31019G25KT 10SM -RA OVC120 19/17 A2986 RMK AO2 LTG DSNT SW
KMYJ 040935Z AUTO 02003G21KT 7SM -RA OVC120 18/17 A2979 RMK AO2 LTG DSNT S
KMYJ 040915Z AUTO 22019G28KT 7SM -RA BKN120 19/17 A2974 RMK AO2 LTG DSNT SW THRU NW
KMYJ 040855Z AUTO 20018G25KT 10SM -RA SCT120 18/17 A2973 RMK AO2 P0002 LTG DSNT W
KMYJ 040835Z AUTO 20021G29KT 7SM -RA SCT120 18/16 A2972 RMK AO2 P0001 LTG DSNT SW AND W
KMYJ 040815Z AUTO 19022G27KT 7SM -RA SCT070 SCT120 18/16 A2973 RMK AO2 P0001 LTG DSNT W AND NW
KMYJ 040755Z AUTO 18022G26KT 7SM -VCTSRA SCT050 SCT070 OVC120 18/16 A2974 RMK AO2 P0006 LTG DSNT SE SW AND NW
KMYJ 040735Z AUTO 20014KT 7SM -RA OVC110 18/17 A2979 RMK AO2 P0004 LTG DSNT W
KMYJ 040715Z AUTO 16013KT 10SM -RA OVC110 19/16 A2982 RMK AO2 P0001 LTG DSNT W
KMYJ 040655Z AUTO 18008KT 7SM -RA SCT100 BKN120 20/17 A2984 RMK AO2 P0001 LTG DSNT S AND NW
KMYJ 040635Z AUTO 19009G18KT 10SM BKN120 19/17 A2983 RMK AO2 P0001 LTG DSNT W AND NW
KMYJ 040615Z AUTO 25007KT 10SM -RA BKN120 20/17 A2986 RMK AO2 LTG DSNT S THRU W
KMYJ 040555Z AUTO 18005KT 10SM SCT065 SCT085 OVC120 20/17 A2985 RMK AO2 LTG DSNT S THRU NW
KMYJ 040535Z AUTO 21011KT 10SM -RA BKN120 20/17 A2985 RMK AO2 LTG DSNT ALQS
KMYJ 040515Z AUTO 20012KT 7SM SCT120 20/17 A2984 RMK AO2 LTG DSNT ALQS
KMYJ 040455Z AUTO 22013KT 10SM VCTS CLR 20/17 A2983 RMK AO2 LTG DSNT ALQS
KMYJ 040435Z AUTO 21017G22KT 7SM TS SCT050 SCT060 SCT100 20/17 A2982 RMK AO2 LTG DSNT SW THRU NW
KMYJ 040415Z AUTO 21014G18KT 7SM -TSRA SCT003 BKN060 OVC100 19/18 A2985 RMK AO2 LTG DSNT ALQS
KMYJ 040355Z AUTO 23010KT 5SM -TSRA SCT003 BKN028 OVC044 19/18 A2989 RMK AO2 P0035 LTG DSNT ALQS
KMYJ 040335Z AUTO 21007KT 3SM TSRA SCT020 OVC028 19/18 A2989 RMK AO2 P0030 LTG DSNT ALQS
KMYJ 040315Z AUTO 05007KT 3SM TSRA 18/18 A2989 RMK AO2 SKY OBSCURED P0013 LTG DSNT ALQS
KMYJ 040255Z AUTO 02008KT 4SM TSRA SCT025 BKN030 BKN038 20/18 A2989 RMK AO2 P0021 LTG DSNT ALQS
KMYJ 040235Z AUTO 05010G20KT 3SM -TSRA SCT032 BKN075 OVC100 19/19 A2986 RMK AO2 P0009 LTG DSNT ALQS
KMYJ 040215Z AUTO 19009G12KT 7SM -TSRA SCT025 SCT034 BKN095 20/18 A2984 RMK AO2 LTG DSNT ALQS
KMYJ 040155Z AUTO 15010G16KT 5SM -TSRA SCT024 BKN033 OVC075 20/18 A2981 RMK AO2 P0015 LTG DSNT ALQS
KMYJ 040135Z AUTO 16013KT 7SM TSRA BKN070 OVC080 20/18 A2982 RMK AO2 P0005 LTG DSNT ALQS
KMYJ 040115Z AUTO 24004KT 7SM -TSRA SCT011 SCT024 BKN070 20/18 A2983 RMK AO2 P0004 LTG DSNT ALQS
KMYJ 040055Z AUTO 12013G18KT 1 1/4SM +TSRA SCT016 BKN040 OVC070 20/18 A2981 RMK AO2 P0023 LTG DSNT ALQS
KMYJ 040035Z AUTO 17016G22KT 2 1/2SM -TSRA SCT026 SCT036 BKN044 23/20 A2980 RMK AO2 VIS 1V5 P0002 LTG DSNT ALQS
KMYJ 040015Z AUTO 15005KT 4SM VCTSHZ SCT090 30/22 A2978 RMK AO2 LTG DSNT ALQS
KMYJ 032355Z AUTO 16003KT 7SM VCTS SCT090 30/22 A2978 RMK AO2 LTG DSNT NW THRU E
KMYJ 032335Z AUTO 22006KT 5SM TSHZ CLR 30/22 A2978 RMK AO2 LTG DSNT NW THRU E
KMYJ 032315Z AUTO 23008KT 7SM TS SCT047 SCT055 SCT080 30/22 A2978 RMK AO2 LTG DSNT ALQS
KMYJ 032255Z AUTO 23008KT 5SM VCTSHZ BKN047 BKN055 BKN065 30/22 A2978 RMK AO2 LTG DSNT N THRU E
KMYJ 032235Z AUTO 23007KT 5SM HZ SCT048 SCT055 SCT065 30/22 A2979 RMK AO2 LTG DSNT NE AND E
KMYJ 032215Z AUTO 22008KT 4SM HZ SCT048 SCT055 SCT080 32/22 A2980 RMK AO2 LTG DSNT NE AND E
KMYJ 032155Z AUTO 21008KT 5SM HZ SCT048 SCT055 BKN070 32/22 A2980 RMK AO2 LTG DSNT NE AND W
KMYJ 032135Z AUTO 23010KT 7SM SCT048 SCT055 32/22 A2980 RMK AO2 LTG DSNT NE
KMYJ 032115Z AUTO 21009KT 5SM VCTSHZ SCT048 SCT055 SCT065 32/22 A2979 RMK AO2 LTG DSNT NE
KMYJ 032055Z AUTO 24011G17KT 7SM SCT065 SCT080 32/22 A2981 RMK AO2 LTG DSNT NE
KMYJ 032035Z AUTO 22009G14KT 5SM HZ SCT050 SCT065 SCT080 32/22 A2981 RMK AO2 LTG DSNT NE
KMYJ 032015Z AUTO 22011KT 7SM SCT043 SCT050 SCT065 32/22 A2982 RMK AO2 LTG DSNT NE
KMYJ 031955Z AUTO 21011KT 4SM HZ SCT045 SCT050 31/22 A2983 RMK AO2 LTG DSNT NE
KMYJ 031935Z AUTO 20012G16KT 7SM CLR 32/22 A2984 RMK AO2 LTG DSNT NE
KMYJ 031915Z AUTO 19011KT 5SM HZ CLR 32/22 A2984 RMK AO2
KMYJ 031855Z AUTO 22012G17KT 5SM HZ CLR 32/22 A2985 RMK AO2
KMYJ 031835Z AUTO 19010KT 7SM CLR 31/21 A2986 RMK AO2 LTG DSNT N
KMYJ 031815Z AUTO 21010G14KT 7SM CLR 31/22 A2987 RMK AO2
KMYJ 031755Z AUTO 19006KT 4SM HZ CLR 31/21 A2988 RMK AO2
KMYJ 031735Z AUTO 20007KT 7SM CLR 31/21 A2989 RMK AO2
KMYJ 031715Z AUTO 19008G16KT 7SM CLR 30/21 A2989 RMK AO2
KMYJ 031655Z AUTO 25008KT 7SM CLR 30/21 A2990 RMK AO2
KMYJ 031635Z AUTO 24008KT 7SM CLR 30/21 A2990 RMK AO2
KMYJ 031615Z AUTO 27008G14KT 7SM SCT070 30/21 A2991 RMK AO2
KMYJ 031555Z AUTO 27010G15KT 7SM SCT070 28/21 A2991 RMK AO2
KMYJ 031535Z AUTO 25010KT 7SM CLR 28/21 A2991 RMK AO2
KMYJ 031515Z AUTO 25012KT 7SM CLR 28/21 A2990 RMK AO2
KMYJ 031455Z AUTO 24011G17KT 5SM HZ CLR 27/21 A2991 RMK AO2